Time,TemperatureF,DewpointF,PressureIn,WindDirection,WindDirectionDegrees,WindSpeedMPH,WindSpeedGustMPH,Humidity,HourlyPrecipIn,Conditions,Clouds,dailyrainin,SoftwareType,DateUTC
2013-02-23 00:02:00,18.1,8.7,29.79,North,0,0.0,0.0,66,0.00,,SKC,0.00,VWS V13.00,2013-02-23 07:02:00,
2013-02-23 00:07:00,18.3,8.9,29.79,North,0,0.0,0.0,66,0.00,,SKC,0.00,VWS V13.00,2013-02-23 07:07:00,
2013-02-23 00:12:00,18.3,8.9,29.76,North,0,0.0,0.0,66,0.00,,SKC,0.00,VWS V13.00,2013-02-23 07:12:00,
2013-02-23 00:17:00,18.1,8.7,29.76,North,0,0.0,0.0,66,0.00,,SKC,0.00,VWS V13.00,2013-02-23 07:17:00,
2013-02-23 00:22:00,18.0,8.2,29.76,North,0,0.0,0.0,65,0.00,,SKC,0.00,VWS V13.00,2013-02-23 07:22:00,
2013-02-23 00:27:00,17.6,7.8,29.76,North,0,0.0,0.0,65,0.00,,SKC,0.00,VWS V13.00,2013-02-23 07:27:00,
2013-02-23 00:32:00,17.2,7.5,29.76,North,0,0.0,0.0,65,0.00,,SKC,0.00,VWS V13.00,2013-02-23 07:32:00,
2013-02-23 00:37:00,16.9,7.2,29.76,North,0,0.0,0.0,65,0.00,,SKC,0.00,VWS V13.00,2013-02-23 07:37:00,
2013-02-23 00:42:00,16.7,7.0,29.76,North,0,0.0,0.0,65,0.00,,SKC,0.00,VWS V13.00,2013-02-23 07:42:00,
2013-02-23 00:47:00,16.7,7.0,29.76,North,0,0.0,0.0,65,0.00,,SKC,0.00,VWS V13.00,2013-02-23 07:47:00,
2013-02-23 00:52:00,16.2,6.1,29.76,North,0,0.0,0.0,64,0.00,,SKC,0.00,VWS V13.00,2013-02-23 07:52:00,
2013-02-23 00:57:00,16.0,6.3,29.76,North,0,0.0,0.0,65,0.00,,SKC,0.00,VWS V13.00,2013-02-23 07:57:00,
2013-02-23 01:02:00,16.2,6.5,29.76,North,0,0.0,0.0,65,0.00,,SKC,0.00,VWS V13.00,2013-02-23 08:02:00,
2013-02-23 01:07:00,16.2,6.8,29.76,North,0,0.0,0.0,66,0.00,,SKC,0.00,VWS V13.00,2013-02-23 08:07:00,
2013-02-23 01:12:00,16.3,7.3,29.76,North,0,0.0,0.0,67,0.00,,SKC,0.00,VWS V13.00,2013-02-23 08:12:00,
2013-02-23 01:17:00,16.3,7.6,29.76,North,0,0.0,0.0,68,0.00,,SKC,0.00,VWS V13.00,2013-02-23 08:17:00,
2013-02-23 01:23:00,16.3,7.6,29.76,North,0,0.0,0.0,68,0.00,,SKC,0.00,VWS V13.00,2013-02-23 08:23:00,
2013-02-23 01:27:00,16.5,8.1,29.76,North,0,0.0,0.0,69,0.00,,SKC,0.00,VWS V13.00,2013-02-23 08:27:00,
2013-02-23 01:33:00,16.7,8.6,29.76,North,0,0.0,0.0,70,0.00,,SKC,0.00,VWS V13.00,2013-02-23 08:33:00,
2013-02-23 01:38:00,17.1,9.0,29.76,North,0,0.0,0.0,70,0.00,,SKC,0.00,VWS V13.00,2013-02-23 08:38:00,
2013-02-23 01:43:00,17.6,9.8,29.73,North,0,0.0,0.0,71,0.00,,SKC,0.00,VWS V13.00,2013-02-23 08:43:00,
2013-02-23 01:48:00,17.8,9.7,29.73,North,0,0.0,0.0,70,0.00,,SKC,0.00,VWS V13.00,2013-02-23 08:48:00,
2013-02-23 01:53:00,18.0,9.8,29.73,North,0,0.0,0.0,70,0.00,,SKC,0.00,VWS V13.00,2013-02-23 08:53:00,
2013-02-23 01:58:00,18.3,10.2,29.73,North,0,0.0,0.0,70,0.00,,SKC,0.00,VWS V13.00,2013-02-23 08:58:00,
2013-02-23 02:03:00,18.7,10.9,29.73,North,0,0.0,0.0,71,0.00,,SKC,0.00,VWS V13.00,2013-02-23 09:03:00,
2013-02-23 02:08:00,19.0,11.2,29.73,North,0,0.0,0.0,71,0.00,,SKC,0.00,VWS V13.00,2013-02-23 09:08:00,
2013-02-23 02:13:00,19.2,11.4,29.73,North,0,0.0,0.0,71,0.00,,SKC,0.00,VWS V13.00,2013-02-23 09:13:00,
2013-02-23 02:18:00,19.4,11.6,29.73,North,0,0.0,0.0,71,0.00,,SKC,0.00,VWS V13.00,2013-02-23 09:18:00,
2013-02-23 02:23:00,19.6,11.4,29.73,North,0,0.0,0.0,70,0.00,,SKC,0.00,VWS V13.00,2013-02-23 09:23:00,
2013-02-23 02:28:00,19.8,11.6,29.73,North,0,0.0,0.0,70,0.00,,SKC,0.00,VWS V13.00,2013-02-23 09:28:00,
2013-02-23 02:33:00,19.9,11.8,29.73,North,0,0.0,0.0,70,0.00,,SKC,0.00,VWS V13.00,2013-02-23 09:33:00,
2013-02-23 02:38:00,19.9,11.8,29.73,North,0,0.0,0.0,70,0.00,,SKC,0.00,VWS V13.00,2013-02-23 09:38:00,
2013-02-23 02:43:00,19.9,11.4,29.70,North,0,0.0,0.0,69,0.00,,SKC,0.00,VWS V13.00,2013-02-23 09:43:00,
2013-02-23 02:48:00,19.9,11.4,29.70,North,0,0.0,0.0,69,0.00,,SKC,0.00,VWS V13.00,2013-02-23 09:48:00,
2013-02-23 02:53:00,20.1,11.6,29.70,North,0,0.0,0.0,69,0.00,,SKC,0.00,VWS V13.00,2013-02-23 09:53:00,
2013-02-23 02:58:00,20.1,11.6,29.70,North,0,0.0,0.0,69,0.00,,SKC,0.00,VWS V13.00,2013-02-23 09:58:00,
2013-02-23 03:03:00,20.3,11.8,29.70,North,0,0.0,0.0,69,0.00,,SKC,0.00,VWS V13.00,2013-02-23 10:03:00,
2013-02-23 03:08:00,20.5,11.9,29.70,North,0,0.0,0.0,69,0.00,,SKC,0.00,VWS V13.00,2013-02-23 10:08:00,
2013-02-23 03:13:00,20.5,11.6,29.70,North,0,0.0,0.0,68,0.00,,SKC,0.00,VWS V13.00,2013-02-23 10:13:00,
2013-02-23 03:18:00,20.5,11.6,29.70,North,0,0.0,0.0,68,0.00,,SKC,0.00,VWS V13.00,2013-02-23 10:18:00,
2013-02-23 03:23:00,20.5,11.6,29.70,North,0,0.0,0.0,68,0.00,,SKC,0.00,VWS V13.00,2013-02-23 10:23:00,
2013-02-23 03:28:00,20.7,11.8,29.70,North,0,0.0,0.0,68,0.00,,SKC,0.00,VWS V13.00,2013-02-23 10:28:00,
2013-02-23 03:33:00,20.8,11.6,29.70,North,0,0.0,0.0,67,0.00,,SKC,0.00,VWS V13.00,2013-02-23 10:33:00,
2013-02-23 03:38:00,20.8,11.6,29.70,North,0,0.0,0.0,67,0.00,,SKC,0.00,VWS V13.00,2013-02-23 10:38:00,
2013-02-23 03:43:00,21.0,11.5,29.67,North,0,0.0,0.0,66,0.00,,SKC,0.00,VWS V13.00,2013-02-23 10:43:00,
2013-02-23 03:48:00,21.0,11.1,29.67,North,0,0.0,0.0,65,0.00,,SKC,0.00,VWS V13.00,2013-02-23 10:48:00,
2013-02-23 03:53:00,20.8,10.9,29.67,North,0,0.0,0.0,65,0.00,,SKC,0.00,VWS V13.00,2013-02-23 10:53:00,
2013-02-23 03:59:00,20.8,10.9,29.67,North,0,0.0,0.0,65,0.00,,SKC,0.00,VWS V13.00,2013-02-23 10:59:00,
2013-02-23 04:04:00,21.0,11.1,29.67,North,0,0.0,0.0,65,0.00,,SKC,0.00,VWS V13.00,2013-02-23 11:04:00,
2013-02-23 04:09:00,21.0,10.8,29.67,North,0,0.0,0.0,64,0.00,,SKC,0.00,VWS V13.00,2013-02-23 11:09:00,
2013-02-23 04:14:00,21.0,10.8,29.67,North,0,0.0,0.0,64,0.00,,SKC,0.00,VWS V13.00,2013-02-23 11:14:00,
2013-02-23 04:19:00,20.8,10.6,29.67,North,0,0.0,0.0,64,0.00,,SKC,0.00,VWS V13.00,2013-02-23 11:19:00,
2013-02-23 04:24:00,21.0,10.8,29.67,North,0,0.0,0.0,64,0.00,,SKC,0.00,VWS V13.00,2013-02-23 11:24:00,
2013-02-23 04:29:00,21.0,10.8,29.67,North,0,0.0,0.0,64,0.00,,SKC,0.00,VWS V13.00,2013-02-23 11:29:00,
2013-02-23 04:34:00,21.0,10.8,29.67,North,0,0.0,0.0,64,0.00,,SKC,0.00,VWS V13.00,2013-02-23 11:34:00,
2013-02-23 04:39:00,21.0,10.8,29.67,North,0,0.0,0.0,64,0.00,,SKC,0.00,VWS V13.00,2013-02-23 11:39:00,
2013-02-23 04:44:00,21.0,10.8,29.64,North,0,0.0,0.0,64,0.00,,SKC,0.00,VWS V13.00,2013-02-23 11:44:00,
2013-02-23 04:49:00,20.8,10.6,29.64,North,0,0.0,0.0,64,0.00,,SKC,0.00,VWS V13.00,2013-02-23 11:49:00,
2013-02-23 04:54:00,20.8,10.6,29.64,North,0,0.0,0.0,64,0.00,,SKC,0.00,VWS V13.00,2013-02-23 11:54:00,
2013-02-23 04:59:00,20.7,10.4,29.64,North,0,0.0,0.0,64,0.00,,SKC,0.00,VWS V13.00,2013-02-23 11:59:00,
2013-02-23 05:04:00,20.7,10.4,29.64,North,0,0.0,0.0,64,0.00,,SKC,0.00,VWS V13.00,2013-02-23 12:04:00,
2013-02-23 05:09:00,20.7,10.4,29.64,North,0,0.0,0.0,64,0.00,,SKC,0.00,VWS V13.00,2013-02-23 12:09:00,
2013-02-23 05:14:00,20.7,10.4,29.64,North,0,0.0,0.0,64,0.00,,SKC,0.00,VWS V13.00,2013-02-23 12:14:00,
2013-02-23 05:19:00,20.7,10.4,29.64,North,0,0.0,0.0,64,0.00,,SKC,0.00,VWS V13.00,2013-02-23 12:19:00,
2013-02-23 05:24:00,20.7,10.4,29.64,North,0,0.0,0.0,64,0.00,,SKC,0.00,VWS V13.00,2013-02-23 12:24:00,
2013-02-23 05:29:00,20.8,10.9,29.64,North,0,0.0,0.0,65,0.00,,SKC,0.00,VWS V13.00,2013-02-23 12:29:00,
2013-02-23 05:34:00,20.8,10.9,29.64,North,0,0.0,0.0,65,0.00,,SKC,0.00,VWS V13.00,2013-02-23 12:34:00,
2013-02-23 05:39:00,20.8,10.9,29.64,North,0,0.0,0.0,65,0.00,,SKC,0.00,VWS V13.00,2013-02-23 12:39:00,
2013-02-23 05:44:00,20.8,10.9,29.64,North,0,0.0,0.0,65,0.00,,SKC,0.00,VWS V13.00,2013-02-23 12:44:00,
2013-02-23 05:49:00,20.7,10.8,29.64,North,0,0.0,0.0,65,0.00,,SKC,0.00,VWS V13.00,2013-02-23 12:49:00,
2013-02-23 05:54:00,20.7,10.8,29.64,North,0,0.0,0.0,65,0.00,,SKC,0.00,VWS V13.00,2013-02-23 12:54:00,
2013-02-23 05:59:00,20.7,10.8,29.61,North,0,0.0,0.0,65,0.00,,SKC,0.00,VWS V13.00,2013-02-23 12:59:00,
2013-02-23 06:04:00,20.8,11.3,29.61,North,0,0.0,0.0,66,0.00,,SKC,0.00,VWS V13.00,2013-02-23 13:04:00,
2013-02-23 06:09:00,21.0,11.5,29.61,North,0,0.0,0.0,66,0.00,,SKC,0.00,VWS V13.00,2013-02-23 13:09:00,
2013-02-23 06:15:00,21.2,12.0,29.61,North,0,0.0,0.0,67,0.00,,SKC,0.00,VWS V13.00,2013-02-23 13:15:00,
2013-02-23 06:20:00,21.7,12.5,29.61,North,0,0.0,0.0,67,0.00,,SKC,0.00,VWS V13.00,2013-02-23 13:20:00,
2013-02-23 06:25:00,21.9,12.7,29.61,North,0,0.0,0.0,67,0.00,,SKC,0.00,VWS V13.00,2013-02-23 13:25:00,
2013-02-23 06:30:00,22.3,13.0,29.58,North,0,0.0,0.0,67,0.00,,SKC,0.00,VWS V13.00,2013-02-23 13:30:00,
2013-02-23 06:35:00,22.3,12.7,29.58,North,0,0.0,0.0,66,0.00,,SKC,0.00,VWS V13.00,2013-02-23 13:35:00,
2013-02-23 06:40:00,22.5,12.5,29.58,North,0,0.0,0.0,65,0.00,,SKC,0.00,VWS V13.00,2013-02-23 13:40:00,
2013-02-23 06:45:00,22.6,12.7,29.58,North,0,0.0,0.0,65,0.00,,SKC,0.00,VWS V13.00,2013-02-23 13:45:00,
2013-02-23 06:50:00,22.8,12.8,29.58,North,0,0.0,0.0,65,0.00,,SKC,0.00,VWS V13.00,2013-02-23 13:50:00,
2013-02-23 06:55:00,23.0,13.0,29.58,North,0,0.0,0.0,65,0.00,,SKC,0.00,VWS V13.00,2013-02-23 13:55:00,
2013-02-23 07:00:00,23.0,13.0,29.61,North,0,0.0,0.0,65,0.00,,SKC,0.00,VWS V13.00,2013-02-23 14:00:00,
2013-02-23 07:05:00,23.0,13.0,29.61,North,0,0.0,0.0,65,0.00,,SKC,0.00,VWS V13.00,2013-02-23 14:05:00,
2013-02-23 07:10:00,22.6,12.0,29.61,North,0,0.0,0.0,63,0.00,,SKC,0.00,VWS V13.00,2013-02-23 14:10:00,
2013-02-23 07:15:00,22.5,12.1,29.58,North,0,0.0,0.0,64,0.00,,SKC,0.00,VWS V13.00,2013-02-23 14:15:00,
2013-02-23 07:20:00,22.6,12.3,29.58,North,0,0.0,0.0,64,0.00,,SKC,0.00,VWS V13.00,2013-02-23 14:20:00,
2013-02-23 07:25:00,22.8,12.8,29.58,North,0,0.0,0.0,65,0.00,,SKC,0.00,VWS V13.00,2013-02-23 14:25:00,
2013-02-23 07:30:00,22.8,12.8,29.58,North,0,0.0,0.0,65,0.00,,SKC,0.00,VWS V13.00,2013-02-23 14:30:00,
2013-02-23 07:35:00,22.6,12.7,29.58,North,0,0.0,0.0,65,0.00,,SKC,0.00,VWS V13.00,2013-02-23 14:35:00,
2013-02-23 07:40:00,22.6,12.7,29.58,North,0,0.0,0.0,65,0.00,,SKC,0.00,VWS V13.00,2013-02-23 14:40:00,
2013-02-23 07:45:00,22.8,13.2,29.58,North,0,0.0,0.0,66,0.00,,SKC,0.00,VWS V13.00,2013-02-23 14:45:00,
2013-02-23 07:50:00,23.0,13.4,29.58,North,0,0.0,0.0,66,0.00,,SKC,0.00,VWS V13.00,2013-02-23 14:50:00,
2013-02-23 07:56:00,23.0,13.4,29.58,North,0,0.0,0.0,66,0.00,,SKC,0.00,VWS V13.00,2013-02-23 14:56:00,
2013-02-23 08:01:00,23.2,13.5,29.55,North,0,0.0,0.0,66,0.00,,SKC,0.00,VWS V13.00,2013-02-23 15:01:00,
2013-02-23 08:06:00,23.4,13.7,29.55,North,0,0.0,0.0,66,0.00,,SKC,0.00,VWS V13.00,2013-02-23 15:06:00,
2013-02-23 08:11:00,23.5,13.9,29.55,North,0,0.0,0.0,66,0.00,,SKC,0.00,VWS V13.00,2013-02-23 15:11:00,
2013-02-23 08:16:00,23.9,14.2,29.55,North,0,0.0,0.0,66,0.00,,SKC,0.00,VWS V13.00,2013-02-23 15:16:00,
2013-02-23 08:21:00,24.1,14.0,29.55,North,0,0.0,0.0,65,0.00,,SKC,0.00,VWS V13.00,2013-02-23 15:21:00,
2013-02-23 08:26:00,24.4,14.7,29.55,North,0,0.0,0.0,66,0.00,,SKC,0.00,VWS V13.00,2013-02-23 15:26:00,
2013-02-23 08:31:00,25.0,14.9,29.55,North,0,0.0,0.0,65,0.00,,SKC,0.00,VWS V13.00,2013-02-23 15:31:00,
2013-02-23 08:36:00,25.2,15.1,29.55,North,0,0.0,0.0,65,0.00,,SKC,0.00,VWS V13.00,2013-02-23 15:36:00,
2013-02-23 08:41:00,25.7,15.6,29.55,North,0,0.0,0.0,65,0.00,,SKC,0.00,VWS V13.00,2013-02-23 15:41:00,
2013-02-23 08:46:00,26.2,16.1,29.55,North,0,0.0,0.0,65,0.00,,SKC,0.00,VWS V13.00,2013-02-23 15:46:00,
2013-02-23 08:51:00,26.4,15.9,29.55,North,0,0.0,0.0,64,0.00,,SKC,0.00,VWS V13.00,2013-02-23 15:51:00,
2013-02-23 08:56:00,26.4,15.6,29.55,North,0,0.0,0.0,63,0.00,,SKC,0.00,VWS V13.00,2013-02-23 15:56:00,
2013-02-23 09:01:00,26.2,15.4,29.55,North,0,0.0,0.0,63,0.00,,SKC,0.00,VWS V13.00,2013-02-23 16:01:00,
2013-02-23 09:06:00,26.4,15.6,29.55,North,0,0.0,0.0,63,0.00,,SKC,0.00,VWS V13.00,2013-02-23 16:06:00,
2013-02-23 09:11:00,26.8,15.5,29.55,North,0,0.0,0.0,62,0.00,,SKC,0.00,VWS V13.00,2013-02-23 16:11:00,
2013-02-23 09:16:00,27.0,15.7,29.55,North,0,0.0,0.0,62,0.00,,SKC,0.00,VWS V13.00,2013-02-23 16:16:00,
2013-02-23 09:21:00,27.1,15.5,29.55,North,0,0.0,0.0,61,0.00,,SKC,0.00,VWS V13.00,2013-02-23 16:21:00,
2013-02-23 09:26:00,27.3,14.9,29.52,North,0,0.0,0.0,59,0.00,,SKC,0.00,VWS V13.00,2013-02-23 16:26:00,
2013-02-23 09:31:00,27.1,14.7,29.52,North,0,0.0,0.0,59,0.00,,SKC,0.00,VWS V13.00,2013-02-23 16:31:00,
2013-02-23 09:36:00,27.0,14.6,29.52,North,0,0.0,0.0,59,0.00,,SKC,0.00,VWS V13.00,2013-02-23 16:36:00,
2013-02-23 09:42:00,27.0,14.9,29.52,North,0,0.0,0.0,60,0.00,,SKC,0.00,VWS V13.00,2013-02-23 16:42:00,
2013-02-23 09:47:00,26.1,15.9,29.52,North,0,0.0,0.0,65,0.00,,SKC,0.00,VWS V13.00,2013-02-23 16:47:00,
2013-02-23 09:52:00,26.1,17.6,29.52,North,0,0.0,0.0,70,0.00,,SKC,0.00,VWS V13.00,2013-02-23 16:52:00,
2013-02-23 09:57:00,26.1,18.3,29.55,North,0,0.0,0.0,72,0.00,,SKC,0.00,VWS V13.00,2013-02-23 16:57:00,
2013-02-23 10:02:00,25.7,18.3,29.55,North,0,0.0,0.0,73,0.00,,SKC,0.00,VWS V13.00,2013-02-23 17:02:00,
2013-02-23 10:07:00,25.7,19.2,29.55,North,0,0.0,0.0,76,0.00,,SKC,0.00,VWS V13.00,2013-02-23 17:07:00,
2013-02-23 10:12:00,25.3,19.5,29.58,North,0,0.0,0.0,78,0.00,,SKC,0.00,VWS V13.00,2013-02-23 17:12:00,
2013-02-23 10:17:00,25.3,19.8,29.58,North,0,0.0,0.0,79,0.00,,SKC,0.00,VWS V13.00,2013-02-23 17:17:00,
2013-02-23 10:22:00,25.3,19.8,29.58,North,0,0.0,0.0,79,0.00,,SKC,0.00,VWS V13.00,2013-02-23 17:22:00,
2013-02-23 10:27:00,25.3,19.8,29.58,North,0,0.0,0.0,79,0.00,,SKC,0.00,VWS V13.00,2013-02-23 17:27:00,
2013-02-23 10:32:00,25.3,20.0,29.58,North,0,0.0,0.0,80,0.00,,SKC,0.00,VWS V13.00,2013-02-23 17:32:00,
2013-02-23 10:37:00,25.3,20.0,29.58,North,0,0.0,0.0,80,0.00,,SKC,0.00,VWS V13.00,2013-02-23 17:37:00,
2013-02-23 10:42:00,25.5,20.2,29.55,North,0,0.0,0.0,80,0.00,,SKC,0.00,VWS V13.00,2013-02-23 17:42:00,
2013-02-23 10:47:00,25.3,19.8,29.55,North,0,0.0,0.0,79,0.00,,SKC,0.00,VWS V13.00,2013-02-23 17:47:00,
2013-02-23 10:52:00,25.0,20.3,29.55,North,0,0.0,0.0,82,0.00,,SKC,0.00,VWS V13.00,2013-02-23 17:52:00,
2013-02-23 10:57:00,24.8,20.7,29.55,North,0,0.0,0.0,84,0.00,,SKC,0.00,VWS V13.00,2013-02-23 17:57:00,
2013-02-23 11:02:00,24.6,20.8,29.55,North,0,0.0,0.0,85,0.00,,SKC,0.00,VWS V13.00,2013-02-23 18:02:00,
2013-02-23 11:07:00,24.3,20.7,29.55,North,0,0.0,0.0,86,0.00,,SKC,0.00,VWS V13.00,2013-02-23 18:07:00,
2013-02-23 11:12:00,24.4,21.1,29.58,North,0,0.0,0.0,87,0.00,,SKC,0.00,VWS V13.00,2013-02-23 18:12:00,
2013-02-23 11:17:00,24.3,21.0,29.58,North,0,0.0,0.0,87,0.00,,SKC,0.00,VWS V13.00,2013-02-23 18:17:00,
2013-02-23 11:22:00,24.1,20.8,29.58,North,0,0.0,0.0,87,0.00,,SKC,0.00,VWS V13.00,2013-02-23 18:22:00,
2013-02-23 11:27:00,24.3,21.0,29.58,North,0,0.0,0.0,87,0.00,,SKC,0.00,VWS V13.00,2013-02-23 18:27:00,
2013-02-23 11:33:00,24.3,21.2,29.58,North,0,0.0,0.0,88,0.00,,SKC,0.00,VWS V13.00,2013-02-23 18:33:00,
2013-02-23 11:38:00,24.3,21.2,29.58,North,0,0.0,0.0,88,0.00,,SKC,0.00,VWS V13.00,2013-02-23 18:38:00,
2013-02-23 11:43:00,24.3,21.2,29.58,North,0,0.0,0.0,88,0.00,,SKC,0.00,VWS V13.00,2013-02-23 18:43:00,
2013-02-23 11:48:00,24.4,21.4,29.58,North,0,0.0,0.0,88,0.00,,SKC,0.00,VWS V13.00,2013-02-23 18:48:00,
2013-02-23 11:53:00,24.6,21.3,29.58,North,0,0.0,0.0,87,0.00,,SKC,0.00,VWS V13.00,2013-02-23 18:53:00,
2013-02-23 11:58:00,24.8,21.5,29.58,North,0,0.0,0.0,87,0.00,,SKC,0.00,VWS V13.00,2013-02-23 18:58:00,
2013-02-23 12:03:00,24.6,21.0,29.58,North,0,0.0,0.0,86,0.00,,SKC,0.00,VWS V13.00,2013-02-23 19:03:00,
2013-02-23 12:08:00,24.8,20.9,29.58,North,0,0.0,0.0,85,0.00,,SKC,0.00,VWS V13.00,2013-02-23 19:08:00,
2013-02-23 12:13:00,25.0,21.1,29.58,North,0,0.0,0.0,85,0.00,,SKC,0.00,VWS V13.00,2013-02-23 19:13:00,
2013-02-23 12:18:00,25.2,21.0,29.58,North,0,0.0,0.0,84,0.00,,SKC,0.00,VWS V13.00,2013-02-23 19:18:00,
2013-02-23 12:23:00,24.6,19.6,29.58,North,0,0.0,0.0,81,0.00,,SKC,0.00,VWS V13.00,2013-02-23 19:23:00,
2013-02-23 12:28:00,24.4,19.2,29.58,North,0,0.0,0.0,80,0.00,,SKC,0.00,VWS V13.00,2013-02-23 19:28:00,
2013-02-23 12:33:00,24.1,18.5,29.58,North,0,0.0,0.0,79,0.00,,SKC,0.00,VWS V13.00,2013-02-23 19:33:00,
2013-02-23 12:38:00,23.9,18.4,29.58,North,0,0.0,0.0,79,0.00,,SKC,0.00,VWS V13.00,2013-02-23 19:38:00,
2013-02-23 12:43:00,24.1,18.5,29.58,North,0,0.0,0.0,79,0.00,,SKC,0.00,VWS V13.00,2013-02-23 19:43:00,
2013-02-23 12:48:00,24.1,18.5,29.58,North,0,0.0,0.0,79,0.00,,SKC,0.00,VWS V13.00,2013-02-23 19:48:00,
2013-02-23 12:53:00,24.1,18.2,29.58,North,0,0.0,0.0,78,0.00,,SKC,0.00,VWS V13.00,2013-02-23 19:53:00,
2013-02-23 12:58:00,23.7,17.6,29.58,North,0,0.0,0.0,77,0.00,,SKC,0.00,VWS V13.00,2013-02-23 19:58:00,
2013-02-23 13:03:00,23.4,16.9,29.58,North,0,0.0,0.0,76,0.00,,SKC,0.00,VWS V13.00,2013-02-23 20:03:00,
2013-02-23 13:08:00,22.8,16.7,29.58,North,0,0.0,0.0,77,0.00,,SKC,0.00,VWS V13.00,2013-02-23 20:08:00,
2013-02-23 13:13:00,22.5,16.4,29.58,North,0,0.0,0.0,77,0.00,,SKC,0.00,VWS V13.00,2013-02-23 20:13:00,
2013-02-23 13:18:00,21.9,16.1,29.58,North,0,0.0,0.0,78,0.00,,SKC,0.00,VWS V13.00,2013-02-23 20:18:00,
2013-02-23 13:23:00,21.2,16.3,29.58,North,0,0.0,0.0,81,0.00,,SKC,0.00,VWS V13.00,2013-02-23 20:23:00,
2013-02-23 13:29:00,20.8,16.5,29.61,North,0,0.0,0.0,83,0.00,,SKC,0.00,VWS V13.00,2013-02-23 20:29:00,
2013-02-23 13:34:00,20.7,16.6,29.61,North,0,0.0,0.0,84,0.00,,SKC,0.00,VWS V13.00,2013-02-23 20:34:00,
2013-02-23 13:39:00,20.3,16.2,29.61,North,0,0.0,0.0,84,0.00,,SKC,0.00,VWS V13.00,2013-02-23 20:39:00,
2013-02-23 13:44:00,19.9,16.2,29.61,North,0,0.0,0.0,85,0.00,,SKC,0.00,VWS V13.00,2013-02-23 20:44:00,
2013-02-23 13:49:00,19.8,16.0,29.61,North,0,0.0,0.0,85,0.00,,SKC,0.00,VWS V13.00,2013-02-23 20:49:00,
2013-02-23 13:54:00,19.8,16.0,29.61,North,0,0.0,0.0,85,0.00,,SKC,0.00,VWS V13.00,2013-02-23 20:54:00,
2013-02-23 13:59:00,19.8,16.0,29.61,North,0,0.0,0.0,85,0.00,,SKC,0.00,VWS V13.00,2013-02-23 20:59:00,
2013-02-23 14:04:00,19.6,15.8,29.61,North,0,0.0,0.0,85,0.00,,SKC,0.00,VWS V13.00,2013-02-23 21:04:00,
2013-02-23 14:09:00,19.6,15.8,29.61,North,0,0.0,0.0,85,0.00,,SKC,0.00,VWS V13.00,2013-02-23 21:09:00,
2013-02-23 14:14:00,19.8,15.7,29.61,North,0,0.0,0.0,84,0.00,,SKC,0.00,VWS V13.00,2013-02-23 21:14:00,
2013-02-23 14:19:00,19.9,15.9,29.61,North,0,0.0,0.0,84,0.00,,SKC,0.00,VWS V13.00,2013-02-23 21:19:00,
2013-02-23 14:24:00,19.8,15.4,29.61,North,0,0.0,0.0,83,0.00,,SKC,0.00,VWS V13.00,2013-02-23 21:24:00,
2013-02-23 14:29:00,19.9,15.9,29.61,North,0,0.0,0.0,84,0.00,,SKC,0.00,VWS V13.00,2013-02-23 21:29:00,
2013-02-23 14:34:00,19.9,15.9,29.61,North,0,0.0,0.0,84,0.00,,SKC,0.00,VWS V13.00,2013-02-23 21:34:00,
2013-02-23 14:39:00,19.9,15.6,29.61,North,0,0.0,0.0,83,0.00,,SKC,0.00,VWS V13.00,2013-02-23 21:39:00,
2013-02-23 14:44:00,20.3,16.0,29.61,North,0,0.0,0.0,83,0.00,,SKC,0.00,VWS V13.00,2013-02-23 21:44:00,
2013-02-23 14:49:00,20.3,15.7,29.61,North,0,0.0,0.0,82,0.00,,SKC,0.00,VWS V13.00,2013-02-23 21:49:00,
2013-02-23 14:54:00,20.7,16.0,29.61,North,0,0.0,0.0,82,0.00,,SKC,0.00,VWS V13.00,2013-02-23 21:54:00,
2013-02-23 14:59:00,20.8,16.2,29.61,North,0,0.0,0.0,82,0.00,,SKC,0.00,VWS V13.00,2013-02-23 21:59:00,
2013-02-23 15:05:00,20.8,15.9,29.61,North,0,0.0,0.0,81,0.00,,SKC,0.00,VWS V13.00,2013-02-23 22:05:00,
2013-02-23 15:10:00,20.8,15.9,29.61,North,0,0.0,0.0,81,0.00,,SKC,0.00,VWS V13.00,2013-02-23 22:10:00,
2013-02-23 15:15:00,21.0,16.1,29.61,North,0,0.0,0.0,81,0.00,,SKC,0.00,VWS V13.00,2013-02-23 22:15:00,
2013-02-23 15:20:00,21.0,16.1,29.61,North,0,0.0,0.0,81,0.00,,SKC,0.00,VWS V13.00,2013-02-23 22:20:00,
2013-02-23 15:25:00,21.2,16.0,29.61,North,0,0.0,0.0,80,0.00,,SKC,0.00,VWS V13.00,2013-02-23 22:25:00,
2013-02-23 15:30:00,21.2,15.7,29.61,North,0,0.0,0.0,79,0.00,,SKC,0.00,VWS V13.00,2013-02-23 22:30:00,
2013-02-23 15:35:00,21.0,15.2,29.61,North,0,0.0,0.0,78,0.00,,SKC,0.00,VWS V13.00,2013-02-23 22:35:00,
2013-02-23 15:43:00,20.5,14.4,29.61,North,0,0.0,0.0,77,0.00,,SKC,0.00,VWS V13.00,2013-02-23 22:43:00,
2013-02-23 15:48:00,20.1,14.7,29.61,North,0,0.0,0.0,79,0.00,,SKC,0.00,VWS V13.00,2013-02-23 22:48:00,
2013-02-23 15:53:00,19.9,14.8,29.61,North,0,0.0,0.0,80,0.00,,SKC,0.00,VWS V13.00,2013-02-23 22:53:00,
2013-02-23 15:58:00,19.9,15.1,29.61,North,0,0.0,0.0,81,0.00,,SKC,0.00,VWS V13.00,2013-02-23 22:58:00,
2013-02-23 16:03:00,19.8,15.2,29.61,North,0,0.0,0.0,82,0.00,,SKC,0.00,VWS V13.00,2013-02-23 23:03:00,
2013-02-23 16:08:00,19.4,14.8,29.61,North,0,0.0,0.0,82,0.00,,SKC,0.00,VWS V13.00,2013-02-23 23:08:00,
2013-02-23 16:13:00,19.2,14.6,29.61,North,0,0.0,0.0,82,0.00,,SKC,0.00,VWS V13.00,2013-02-23 23:13:00,
2013-02-23 16:18:00,19.0,14.7,29.61,North,0,0.0,0.0,83,0.00,,SKC,0.00,VWS V13.00,2013-02-23 23:18:00,
2013-02-23 16:23:00,19.0,15.0,29.61,North,0,0.0,0.0,84,0.00,,SKC,0.00,VWS V13.00,2013-02-23 23:23:00,
2013-02-23 16:28:00,19.0,15.3,29.61,North,0,0.0,0.0,85,0.00,,SKC,0.00,VWS V13.00,2013-02-23 23:28:00,
2013-02-23 16:33:00,19.0,15.3,29.61,North,0,0.0,0.0,85,0.00,,SKC,0.00,VWS V13.00,2013-02-23 23:33:00,
2013-02-23 16:38:00,19.0,15.3,29.61,North,0,0.0,0.0,85,0.00,,SKC,0.00,VWS V13.00,2013-02-23 23:38:00,
2013-02-23 16:43:00,19.2,15.7,29.64,North,0,0.0,0.0,86,0.00,,SKC,0.00,VWS V13.00,2013-02-23 23:43:00,
2013-02-23 16:48:00,19.4,16.2,29.64,North,0,0.0,0.0,87,0.00,,SKC,0.00,VWS V13.00,2013-02-23 23:48:00,
2013-02-23 16:53:00,19.8,16.3,29.64,North,0,0.0,0.0,86,0.00,,SKC,0.00,VWS V13.00,2013-02-23 23:53:00,
2013-02-23 16:58:00,19.9,16.7,29.64,North,0,0.0,0.0,87,0.00,,SKC,0.00,VWS V13.00,2013-02-23 23:58:00,
2013-02-23 17:03:00,19.9,16.7,29.64,North,0,0.0,0.0,87,0.00,,SKC,0.00,VWS V13.00,2013-02-24 00:03:00,
2013-02-23 17:08:00,20.1,16.9,29.64,North,0,0.0,0.0,87,0.00,,SKC,0.00,VWS V13.00,2013-02-24 00:08:00,
2013-02-23 17:14:00,20.1,16.9,29.64,North,0,0.0,0.0,87,0.00,,SKC,0.00,VWS V13.00,2013-02-24 00:14:00,
2013-02-23 17:19:00,20.1,16.9,29.64,North,0,0.0,0.0,87,0.00,,SKC,0.00,VWS V13.00,2013-02-24 00:19:00,
2013-02-23 17:24:00,20.3,17.1,29.64,North,0,0.0,0.0,87,0.00,,SKC,0.00,VWS V13.00,2013-02-24 00:24:00,
2013-02-23 17:29:00,20.1,16.9,29.64,North,0,0.0,0.0,87,0.00,,SKC,0.00,VWS V13.00,2013-02-24 00:29:00,
2013-02-23 17:34:00,20.1,16.6,29.64,North,0,0.0,0.0,86,0.00,,SKC,0.00,VWS V13.00,2013-02-24 00:34:00,
2013-02-23 17:39:00,20.3,16.8,29.64,North,0,0.0,0.0,86,0.00,,SKC,0.00,VWS V13.00,2013-02-24 00:39:00,
2013-02-23 17:44:00,20.5,17.0,29.64,North,0,0.0,0.0,86,0.00,,SKC,0.00,VWS V13.00,2013-02-24 00:44:00,
2013-02-23 17:49:00,20.7,17.1,29.64,North,0,0.0,0.0,86,0.00,,SKC,0.00,VWS V13.00,2013-02-24 00:49:00,
2013-02-23 17:54:00,20.7,17.1,29.64,North,0,0.0,0.0,86,0.00,,SKC,0.00,VWS V13.00,2013-02-24 00:54:00,
2013-02-23 17:59:00,20.7,17.1,29.64,North,0,0.0,0.0,86,0.00,,SKC,0.00,VWS V13.00,2013-02-24 00:59:00,
2013-02-23 18:04:00,20.3,16.5,29.64,North,0,0.0,0.0,85,0.00,,SKC,0.00,VWS V13.00,2013-02-24 01:04:00,
2013-02-23 18:09:00,20.3,16.5,29.64,North,0,0.0,0.0,85,0.00,,SKC,0.00,VWS V13.00,2013-02-24 01:09:00,
2013-02-23 18:14:00,20.5,16.7,29.64,North,0,0.0,0.0,85,0.00,,SKC,0.00,VWS V13.00,2013-02-24 01:14:00,
2013-02-23 18:19:00,20.3,16.5,29.64,North,0,0.0,0.0,85,0.00,,SKC,0.00,VWS V13.00,2013-02-24 01:19:00,
2013-02-23 18:24:00,20.3,16.5,29.64,North,0,0.0,0.0,85,0.00,,SKC,0.00,VWS V13.00,2013-02-24 01:24:00,
2013-02-23 18:29:00,20.3,16.5,29.67,North,0,0.0,0.0,85,0.00,,SKC,0.00,VWS V13.00,2013-02-24 01:29:00,
2013-02-23 18:34:00,20.3,16.2,29.67,North,0,0.0,0.0,84,0.00,,SKC,0.00,VWS V13.00,2013-02-24 01:34:00,
2013-02-23 18:39:00,20.3,16.2,29.67,North,0,0.0,0.0,84,0.00,,SKC,0.00,VWS V13.00,2013-02-24 01:39:00,
2013-02-23 18:44:00,20.3,16.2,29.67,North,0,0.0,0.0,84,0.00,,SKC,0.00,VWS V13.00,2013-02-24 01:44:00,
2013-02-23 18:49:00,20.3,16.2,29.67,North,0,0.0,0.0,84,0.00,,SKC,0.00,VWS V13.00,2013-02-24 01:49:00,
2013-02-23 18:54:00,20.3,16.2,29.67,North,0,0.0,0.0,84,0.00,,SKC,0.00,VWS V13.00,2013-02-24 01:54:00,
2013-02-23 18:59:00,20.3,16.2,29.67,North,0,0.0,0.0,84,0.00,,SKC,0.00,VWS V13.00,2013-02-24 01:59:00,
2013-02-23 19:04:00,20.3,16.0,29.67,North,0,0.0,0.0,83,0.00,,SKC,0.00,VWS V13.00,2013-02-24 02:04:00,
2013-02-23 19:09:00,20.3,16.0,29.67,North,0,0.0,0.0,83,0.00,,SKC,0.00,VWS V13.00,2013-02-24 02:09:00,
2013-02-23 19:14:00,19.9,15.3,29.67,North,0,0.0,0.0,82,0.00,,SKC,0.00,VWS V13.00,2013-02-24 02:14:00,
2013-02-23 19:19:00,19.9,15.3,29.67,North,0,0.0,0.0,82,0.00,,SKC,0.00,VWS V13.00,2013-02-24 02:19:00,
2013-02-23 19:24:00,20.1,15.5,29.67,North,0,0.0,0.0,82,0.00,,SKC,0.00,VWS V13.00,2013-02-24 02:24:00,
2013-02-23 19:29:00,20.3,15.7,29.67,North,0,0.0,0.0,82,0.00,,SKC,0.00,VWS V13.00,2013-02-24 02:29:00,
2013-02-23 19:34:00,20.5,15.9,29.67,North,0,0.0,0.0,82,0.00,,SKC,0.00,VWS V13.00,2013-02-24 02:34:00,
2013-02-23 19:39:00,20.7,16.0,29.67,North,0,0.0,0.0,82,0.00,,SKC,0.00,VWS V13.00,2013-02-24 02:39:00,
2013-02-23 19:44:00,20.7,16.0,29.67,North,0,0.0,0.0,82,0.00,,SKC,0.00,VWS V13.00,2013-02-24 02:44:00,
2013-02-23 19:50:00,20.8,16.2,29.67,North,0,0.0,0.0,82,0.00,,SKC,0.00,VWS V13.00,2013-02-24 02:50:00,
2013-02-23 19:55:00,20.7,15.8,29.67,North,0,0.0,0.0,81,0.00,,SKC,0.00,VWS V13.00,2013-02-24 02:55:00,
2013-02-23 20:00:00,20.8,15.7,29.67,North,0,0.0,0.0,80,0.00,,SKC,0.00,VWS V13.00,2013-02-24 03:00:00,
2013-02-23 20:05:00,20.7,15.2,29.67,North,0,0.0,0.0,79,0.00,,SKC,0.00,VWS V13.00,2013-02-24 03:05:00,
2013-02-23 20:10:00,20.7,15.2,29.67,North,0,0.0,0.0,79,0.00,,SKC,0.00,VWS V13.00,2013-02-24 03:10:00,
2013-02-23 20:15:00,20.5,14.7,29.67,North,0,0.0,0.0,78,0.00,,SKC,0.00,VWS V13.00,2013-02-24 03:15:00,
2013-02-23 20:20:00,20.5,14.7,29.67,North,0,0.0,0.0,78,0.00,,SKC,0.00,VWS V13.00,2013-02-24 03:20:00,
2013-02-23 20:25:00,20.3,14.3,29.67,North,0,0.0,0.0,77,0.00,,SKC,0.00,VWS V13.00,2013-02-24 03:25:00,
2013-02-23 20:30:00,20.3,14.3,29.67,North,0,0.0,0.0,77,0.00,,SKC,0.00,VWS V13.00,2013-02-24 03:30:00,
2013-02-23 20:35:00,19.9,13.6,29.67,North,0,0.0,0.0,76,0.00,,SKC,0.00,VWS V13.00,2013-02-24 03:35:00,
2013-02-23 20:40:00,19.9,13.6,29.67,North,0,0.0,0.0,76,0.00,,SKC,0.00,VWS V13.00,2013-02-24 03:40:00,
2013-02-23 20:45:00,19.8,13.4,29.67,North,0,0.0,0.0,76,0.00,,SKC,0.00,VWS V13.00,2013-02-24 03:45:00,
2013-02-23 20:50:00,19.8,13.7,29.67,North,0,0.0,0.0,77,0.00,,SKC,0.00,VWS V13.00,2013-02-24 03:50:00,
2013-02-23 20:55:00,19.8,13.7,29.67,North,0,0.0,0.0,77,0.00,,SKC,0.00,VWS V13.00,2013-02-24 03:55:00,
2013-02-23 21:00:00,19.8,13.7,29.67,North,0,0.0,0.0,77,0.00,,SKC,0.00,VWS V13.00,2013-02-24 04:00:00,
2013-02-23 21:05:00,19.9,13.9,29.67,North,0,0.0,0.0,77,0.00,,SKC,0.00,VWS V13.00,2013-02-24 04:05:00,
2013-02-23 21:10:00,19.9,13.9,29.67,North,0,0.0,0.0,77,0.00,,SKC,0.00,VWS V13.00,2013-02-24 04:10:00,
2013-02-23 21:15:00,19.9,13.9,29.67,North,0,0.0,0.0,77,0.00,,SKC,0.00,VWS V13.00,2013-02-24 04:15:00,
2013-02-23 21:20:00,19.9,14.2,29.67,North,0,0.0,0.0,78,0.00,,SKC,0.00,VWS V13.00,2013-02-24 04:20:00,
2013-02-23 21:25:00,19.9,14.2,29.67,North,0,0.0,0.0,78,0.00,,SKC,0.00,VWS V13.00,2013-02-24 04:25:00,
2013-02-23 21:30:00,19.9,14.2,29.67,North,0,0.0,0.0,78,0.00,,SKC,0.00,VWS V13.00,2013-02-24 04:30:00,
2013-02-23 21:36:00,19.9,13.9,29.67,North,0,0.0,0.0,77,0.00,,SKC,0.00,VWS V13.00,2013-02-24 04:36:00,
2013-02-23 21:41:00,20.1,14.1,29.67,North,0,0.0,0.0,77,0.00,,SKC,0.00,VWS V13.00,2013-02-24 04:41:00,
2013-02-23 21:46:00,20.3,14.3,29.67,North,0,0.0,0.0,77,0.00,,SKC,0.00,VWS V13.00,2013-02-24 04:46:00,
2013-02-23 21:51:00,20.5,14.4,29.67,North,0,0.0,0.0,77,0.00,,SKC,0.00,VWS V13.00,2013-02-24 04:51:00,
2013-02-23 21:56:00,20.8,14.8,29.67,North,0,0.0,0.0,77,0.00,,SKC,0.00,VWS V13.00,2013-02-24 04:56:00,
2013-02-23 22:00:00,20.8,14.8,29.67,North,0,0.0,0.0,77,0.00,,SKC,0.00,VWS V13.00,2013-02-24 05:00:00,
2013-02-23 22:05:00,20.8,14.5,29.67,North,0,0.0,0.0,76,0.00,,SKC,0.00,VWS V13.00,2013-02-24 05:05:00,
2013-02-23 22:10:00,20.7,14.0,29.67,North,0,0.0,0.0,75,0.00,,SKC,0.00,VWS V13.00,2013-02-24 05:10:00,
2013-02-23 22:15:00,20.5,13.5,29.70,North,0,0.0,0.0,74,0.00,,SKC,0.00,VWS V13.00,2013-02-24 05:15:00,
2013-02-23 22:20:00,20.5,13.5,29.70,North,0,0.0,0.0,74,0.00,,SKC,0.00,VWS V13.00,2013-02-24 05:20:00,
2013-02-23 22:25:00,20.5,13.8,29.70,North,0,0.0,0.0,75,0.00,,SKC,0.00,VWS V13.00,2013-02-24 05:25:00,
2013-02-23 22:30:00,20.3,13.7,29.70,North,0,0.0,0.0,75,0.00,,SKC,0.00,VWS V13.00,2013-02-24 05:30:00,
2013-02-23 22:35:00,20.3,13.7,29.70,North,0,0.0,0.0,75,0.00,,SKC,0.00,VWS V13.00,2013-02-24 05:35:00,
2013-02-23 22:40:00,20.1,13.5,29.70,North,0,0.0,0.0,75,0.00,,SKC,0.00,VWS V13.00,2013-02-24 05:40:00,
2013-02-23 22:46:00,20.3,14.0,29.70,North,0,0.0,0.0,76,0.00,,SKC,0.00,VWS V13.00,2013-02-24 05:46:00,
2013-02-23 22:51:00,20.3,14.0,29.70,North,0,0.0,0.0,76,0.00,,SKC,0.00,VWS V13.00,2013-02-24 05:51:00,
2013-02-23 22:56:00,20.1,13.8,29.70,North,0,0.0,0.0,76,0.00,,SKC,0.00,VWS V13.00,2013-02-24 05:56:00,
2013-02-23 23:01:00,20.1,13.8,29.70,North,0,0.0,0.0,76,0.00,,SKC,0.00,VWS V13.00,2013-02-24 06:01:00,
2013-02-23 23:06:00,20.1,13.8,29.70,North,0,0.0,0.0,76,0.00,,SKC,0.00,VWS V13.00,2013-02-24 06:06:00,
2013-02-23 23:11:00,19.9,13.3,29.70,North,0,0.0,0.0,75,0.00,,SKC,0.00,VWS V13.00,2013-02-24 06:11:00,
2013-02-23 23:16:00,19.8,13.1,29.70,North,0,0.0,0.0,75,0.00,,SKC,0.00,VWS V13.00,2013-02-24 06:16:00,
2013-02-23 23:21:00,19.8,13.1,29.70,North,0,0.0,0.0,75,0.00,,SKC,0.00,VWS V13.00,2013-02-24 06:21:00,
2013-02-23 23:26:00,19.8,13.1,29.70,North,0,0.0,0.0,75,0.00,,SKC,0.00,VWS V13.00,2013-02-24 06:26:00,
2013-02-23 23:31:00,19.6,13.0,29.70,North,0,0.0,0.0,75,0.00,,SKC,0.00,VWS V13.00,2013-02-24 06:31:00,
2013-02-23 23:36:00,19.6,13.0,29.70,North,0,0.0,0.0,75,0.00,,SKC,0.00,VWS V13.00,2013-02-24 06:36:00,
2013-02-23 23:41:00,19.6,13.0,29.70,North,0,0.0,0.0,75,0.00,,SKC,0.00,VWS V13.00,2013-02-24 06:41:00,
2013-02-23 23:46:00,19.4,12.8,29.70,North,0,0.0,0.0,75,0.00,,SKC,0.00,VWS V13.00,2013-02-24 06:46:00,
2013-02-23 23:51:00,19.2,12.6,29.70,North,0,0.0,0.0,75,0.00,,SKC,0.00,VWS V13.00,2013-02-24 06:51:00,
2013-02-23 23:56:00,19.0,12.4,29.70,North,0,0.0,0.0,75,0.00,,SKC,0.00,VWS V13.00,2013-02-24 06:56:00,